Time;durP1;ratioP1;P1;durP2;ratioP2;P2;SDS_P1;SDS_P2;PMS_P1;PMS_P2;Temp;Humidity;BMP_temperature;BMP_pressure;BME280_temperature;BME280_humidity;BME280_pressure;Samples;Min_cycle;Max_cycle;Signal;HPM_P1;HPM_P2
2023/01/27 00:10:20;;;;;;;27.63;14.60;;;;;;;-0.83;100.00;100916.09;31212757;28;20077;-81
2023/01/27 00:25:22;;;;;;;24.07;11.47;;;;;;;-1.00;100.00;100876.97;31180007;28;20414;-82
2023/01/27 00:40:24;;;;;;;27.23;13.33;;;;;;;-0.99;100.00;100864.44;31205081;28;20104;-81
2023/01/27 00:55:38;;;;;;;35.00;12.70;;;;;;;-1.07;100.00;100856.16;31195768;28;20055;-81
2023/01/27 01:10:40;;;;;;;22.40;12.27;;;;;;;-0.87;100.00;100832.53;31207518;28;20049;-83
2023/01/27 01:25:42;;;;;;;38.10;15.87;;;;;;;-0.83;100.00;100822.78;31197945;28;20584;-82
2023/01/27 01:40:44;;;;;;;27.27;11.53;;;;;;;-0.73;100.00;100803.75;31182741;28;20111;-76
2023/01/27 01:55:47;;;;;;;22.77;11.03;;;;;;;-0.68;100.00;100806.19;31206882;28;20045;-75
2023/01/27 02:10:51;;;;;;;24.17;10.20;;;;;;;-1.28;100.00;100810.03;31209540;28;20054;-76
2023/01/27 06:41:58;;;;;;;38.07;15.20;;;;;;;1.35;100.00;100436.44;31277464;28;20825;-80
2023/01/27 06:57:00;;;;;;;43.67;16.13;;;;;;;1.14;100.00;100558.97;31215962;28;20046;-75
2023/01/27 07:12:02;;;;;;;44.40;18.03;;;;;;;1.59;100.00;100614.75;31206216;28;20049;-74
2023/01/27 07:27:04;;;;;;;43.90;16.27;;;;;;;1.87;100.00;100628.03;31206239;28;20104;-77
2023/01/27 07:42:07;;;;;;;50.87;15.77;;;;;;;2.00;100.00;100630.25;31128631;28;20112;-75
2023/01/27 07:57:10;;;;;;;49.77;16.07;;;;;;;2.17;100.00;100658.56;31116686;28;20049;-78
2023/01/27 08:12:12;;;;;;;54.50;16.77;;;;;;;2.27;100.00;100609.84;31113373;28;20042;-74
2023/01/27 08:27:14;;;;;;;60.70;16.27;;;;;;;2.61;100.00;100596.75;31151320;28;20458;-74
2023/01/27 08:42:17;;;;;;;55.70;20.37;;;;;;;2.95;100.00;100569.09;31126524;28;20046;-75
2023/01/27 08:57:18;;;;;;;50.27;15.73;;;;;;;3.05;100.00;100563.16;31105565;28;20061;-76
2023/01/27 09:12:20;;;;;;;41.67;14.23;;;;;;;3.37;100.00;100579.00;31093495;28;20108;-73
2023/01/27 09:27:22;;;;;;;48.67;16.73;;;;;;;3.56;100.00;100559.38;31105372;28;20085;-75
2023/01/27 09:43:04;;;;;;;39.00;15.03;;;;;;;5.07;100.00;100559.81;31120954;28;20048;-86
2023/01/27 09:58:17;;;;;;;35.20;15.93;;;;;;;6.19;100.00;100573.00;31106733;28;20062;-75
2023/01/27 14:34:35;;;;;;;20.67;9.43;;;;;;;5.30;100.00;100491.56;31627247;27;1378615;-78
2023/01/27 14:50:02;;;;;;;20.77;10.27;;;;;;;5.17;100.00;100499.16;31543561;28;20102;-79
2023/01/27 15:05:12;;;;;;;19.37;8.80;;;;;;;5.02;100.00;100492.88;31549367;28;20055;-77
2023/01/27 15:20:23;;;;;;;21.70;9.03;;;;;;;4.83;100.00;100487.69;31538805;28;20052;-78
2023/01/27 15:35:29;;;;;;;19.13;9.40;;;;;;;4.36;100.00;100473.00;31467447;28;20106;-77
2023/01/27 15:50:34;;;;;;;17.73;8.53;;;;;;;4.29;100.00;100482.88;31432129;28;20513;-78
2023/01/27 16:05:50;;;;;;;27.43;10.60;;;;;;;4.07;100.00;100468.41;31453014;28;20052;-79
2023/01/27 16:21:05;;;;;;;18.77;9.17;;;;;;;3.84;100.00;100451.63;31416061;28;20062;-74
2023/01/27 16:36:22;;;;;;;22.17;9.20;;;;;;;3.73;100.00;100456.88;31443054;28;20505;-73
2023/01/27 16:51:27;;;;;;;18.33;9.37;;;;;;;3.94;100.00;100456.38;31416433;28;20053;-72
2023/01/27 17:06:30;;;;;;;24.37;11.77;;;;;;;3.81;100.00;100446.97;31437364;28;20056;-79
2023/01/27 17:22:01;;;;;;;18.97;9.13;;;;;;;3.73;100.00;100446.13;31435737;28;20079;-77
2023/01/27 17:37:11;;;;;;;24.13;8.80;;;;;;;3.39;100.00;100443.34;31432689;28;20111;-78
2023/01/27 17:52:21;;;;;;;18.77;9.30;;;;;;;3.41;100.00;100451.03;31409348;28;20088;-79
2023/01/27 18:07:24;;;;;;;20.83;8.93;;;;;;;3.23;100.00;100436.56;31430958;28;20177;-81
2023/01/27 18:22:26;;;;;;;21.90;9.37;;;;;;;3.19;100.00;100433.06;31386474;28;20103;-79
2023/01/27 18:37:31;;;;;;;23.90;10.13;;;;;;;2.99;100.00;100429.69;31451422;28;20080;-80
2023/01/27 18:52:33;;;;;;;20.57;9.07;;;;;;;2.79;100.00;100426.31;31457617;28;20049;-79
2023/01/27 19:07:36;;;;;;;28.50;12.03;;;;;;;2.94;100.00;100422.72;31454955;28;20098;-78
2023/01/27 19:22:37;;;;;;;24.50;9.57;;;;;;;2.74;100.00;100407.81;31415662;28;20118;-77
2023/01/27 19:37:40;;;;;;;27.93;11.87;;;;;;;2.34;100.00;100406.38;31460867;28;20045;-77
2023/01/27 19:52:42;;;;;;;44.43;14.00;;;;;;;2.20;100.00;100395.38;31488641;28;20052;-77
2023/01/27 20:07:44;;;;;;;26.43;11.13;;;;;;;1.69;100.00;100386.72;31450401;28;20774;-78
2023/01/27 20:22:46;;;;;;;25.03;12.17;;;;;;;1.53;100.00;100370.72;31449101;28;20087;-78
2023/01/27 20:37:50;;;;;;;28.17;11.10;;;;;;;1.79;100.00;100369.34;31392595;28;20091;-77
2023/01/27 20:52:53;;;;;;;24.13;10.53;;;;;;;1.79;100.00;100363.97;31333310;28;20885;-77
2023/01/27 21:07:55;;;;;;;27.37;11.10;;;;;;;1.52;100.00;100338.97;31348277;28;20102;-78
2023/01/27 21:22:56;;;;;;;29.63;11.77;;;;;;;1.63;100.00;100311.31;31326810;28;20150;-75
2023/01/27 21:37:58;;;;;;;30.93;13.87;;;;;;;1.72;100.00;100305.72;31432953;28;20063;-76
2023/01/27 21:53:07;;;;;;;27.10;13.80;;;;;;;1.61;100.00;100278.00;31423020;28;20413;-76
